Archival Weather

Chicago O'Hare International

Chicago, Illinois (KORD)

Report from: Wednesday, April 3, 2024 11:51 AM CDT
Current time: Tuesday, June 18, 2024 8:00 AM CDT

Current weather – Weather history – Daily summaries
Weather forecast

Present weatherLight snow, mist
Temperature2.2°C (36.0°F)
Wind chill-3.2°C (26.3°F)
Dew point0.6°C (33.1°F)
Winds 14 kts (7.2 m/s, 16.1 mph) West (260°)
Peak wind 27 kts (13.9 m/s, 31.1 mph) West (260°) at 16:13
Visibility3 mi. (4.8 km)
Clouds Ceiling: Broken clouds 800 ft. (244 m)
Overcast 1,600 ft. (488 m)
Altimeter29.17 in.Hg (988 mB)
Precipitiation0.02 in. (1 mm)
Precip. events Rain ended 4:29 PM
Relative humidity89 %
Density altitude-3,956 ft. (-1,206 m)
Sea-level pressure108.8 kPa (1088 mB, 32.14 in.Hg)
Remarks System requires maintenance
Automated weather observing station with precipitation discriminator
Flight conditions Instrument Meteorological Conditions
Raw dataKORD 031651Z 26014KT 3SM -SN BR BKN008 OVC016 02/01 A2917 RMK AO2 PK WND 26027/1613 RAE29 SLP884 P0002 T00220006 $
An error has occurred. This application may no longer respond until reloaded. Reload 🗙